• Join FlightAware (Why Join?)
  • Login
  • US Flag 
 
10:03AM EST


 

Airport Tracker/Info


-or-


 

Live Flight TrackerFlight Track Log ✈ SKW2630 ✈ 05-May-2013 ✈ KLAX - KFAT

Flight Track Log - Related Links

Times and Time Zones

All times are in EDT time to prevent confusion due to time zone crossing. See the SKW2630 flight status page for this flight to view local times or setup timezone preferences in your user account.

Time Position Orientation Groundspeed Altitude Reporting Facility
EDT Latitude Longitude Course Direction KTS MPH feet Rate Location/Type
11:47AM 33.9656 -118.3578 336° Northwest 208 239 2,600  Level Los Angeles Center
11:48AM 33.9978 -118.2794 64° Northeast 250 288 6,000 3,060 Climbing Los Angeles Center
11:49AM 34.0689 -118.2619 12° North 286 329 8,900 3,000 Climbing Los Angeles Center
11:50AM 34.1453 -118.3036 336° Northwest 299 344 12,200 3,000 Climbing Los Angeles Center
11:51AM 34.2333 -118.3675 329° Northwest 318 366 15,200 2,400 Climbing Los Angeles Center
11:52AM 34.4706 -118.6846 345° North  Level FlightAware Approximate
11:52AM 34.3225 -118.4011 343° North 334 384 17,200  Level Los Angeles Center
11:53AM 34.5639 -118.7241 336° Northwest  Level FlightAware Approximate
11:53AM 34.4156 -118.4364 343° North 350 403 19,400  Level Los Angeles Center
11:54AM 34.5114 -118.4728 343° North 361 415 21,200 1,500 Climbing Los Angeles Center
11:55AM 34.6114 -118.5103 343° North 375 432 22,600 1,320 Climbing Los Angeles Center
11:56AM 34.7150 -118.5525 341° North 393 452 24,000 660 Climbing Los Angeles Center
11:57AM 34.8461 -118.6017 343° North 413 475 24,000  Level Los Angeles Center
11:58AM 34.9631 -118.6458 343° North 429 494 24,000  Level Los Angeles Center
11:59AM 35.0544 -118.6817 342° North 431 496 24,000  Level Los Angeles Center
12:00PM 35.1889 -118.7336 342° North 427 491 24,000  Level Los Angeles Center
12:01PM 35.3014 -118.7769 343° North 425 489 24,000  Level Los Angeles Center
12:02PM 35.4128 -118.8208 342° North 424 488 24,000  Level Los Angeles Center
12:03PM 35.5217 -118.8642 342° North 416 479 24,000 -840 Level Los Angeles Center
12:04PM 35.6528 -118.9164 342° North 415 478 22,300 -1,560 Descending Los Angeles Center
12:05PM 35.7189 -118.9425 342° North 418 481 21,300 -1,500 Descending Oakland Center
12:06PM 35.8275 -118.9861 342° North 416 479 19,700 -1,860 Descending Oakland Center
12:07PM 35.9572 -119.0397 342° North 414 476 17,600 -1,860 Descending Oakland Center
12:08PM 36.0628 -119.0922 338° Northwest 413 475 16,000 -1,620 Descending Oakland Center
12:09PM 36.1653 -119.1422 339° North 404 465 14,400 -1,020 Descending Oakland Center
12:10PM 36.2628 -119.1856 340° North 387 445 14,000 -900 Descending Oakland Center
12:11PM 36.3589 -119.2328 338° Northwest 373 429 12,600 -1,440 Descending Oakland Center
12:12PM 36.4486 -119.2747 339° North 348 400 11,100 -1,500 Descending Oakland Center
12:13PM 36.5272 -119.3136 338° Northwest 311 358 9,600 -1,500 Descending Oakland Center
12:14PM 36.6036 -119.3603 334° Northwest 308 354 8,100 -1,500 Descending Oakland Center
12:15PM 36.6722 -119.4192 325° Northwest 302 348 6,600 -1,080 Descending Oakland Center
12:16PM 36.7381 -119.4747 326° Northwest 287 330 6,000 -840 Descending Oakland Center
12:17PM 36.8089 -119.5536 318° Northwest 286 329 5,000 -1,200 Descending Oakland Center
12:18PM 36.8525 -119.6275 306° West 262 302 3,600 -1,140 Descending Oakland Center
12:19PM 36.8858 -119.6947 302° West 227 261 2,700 -840 Descending Oakland Center
12:20PM 36.8583 -119.7461 236° Southwest 166 191 2,000 -600 Descending Oakland Center
12:21PM 36.8261 -119.7797 220° Southwest 155 178 1,600 -600 Descending Oakland Center
12:22PM 36.7961 -119.7569 149° Southeast 123 142 900 -660 Descending Oakland Center
12:23PM 36.7803 -119.7281 124° Southeast 115 132 300 -600 Descending Oakland Center